EHWO/WOE METAR and TAF weather

Enter ICAO airport designator
Station Type Date Time Source
EHWO METAR 2020/05/30 05:25 UTC NOAA

EHWO 300525Z AUTO 07008KT 9999 NCD 13/07 Q1024 BLU


Station Type Date Time Source
EHWO Decoded METAR 2020/05/30 05:25 UTC NOAA

Woensdrecht, Netherlands (EHWO) 51-27N 004-20E 17M
May 30, 2020 - 01:25 AM EDT / 2020.05.30 0525 UTC
Wind: from the ENE (070 degrees) at 9 MPH (8 KT):0
Visibility: greater than 7 mile(s):0
Temperature: 55 F (13 C)
Dew Point: 44 F (7 C)
Relative Humidity: 66%
Pressure (altimeter): 30.24 in. Hg (1024 hPa)
ob: EHWO 300525Z AUTO 07008KT 9999 NCD 13/07 Q1024 BLU
cycle: 5

Station Type Date Time Source
EHWO TAF 2020/05/29 09:06 UTC NOAA

TAF EHWO 290829Z 2909/2921 06007KT CAVOK

Example: see airport list